Etusivu
METAR-TAF:

METAR-TAF

Lentoasemat :

Miyako-jima, Japani

Leveyspiiri: 24-47N, Pituuspiiri: 125-17E, korkeus merenpinnasta: 40 m

Tämänhetkinen sää

Tämä raportti tehtiin 59 minuuttia sitten, kello 16.00 UTC
Tuuli 5 kn pohjoisen/luoteesta, vaihdellen lännen/luoteen ja pohjoisen välillä
Lämpötila 24°C
Kosteus 94%
Ilmanpaine 1010 hPa
Näkyvyys 10 km tai enemmän
Muutamia pilviä 700 ft:n korkeudessa
Hajanaisia pilviä 1300 ft:n korkeudessa
Hajonneita pilviä 2700 ft:n korkeudessa
ukkosmyrsky, heikkoa sadetta,

METAR: ROMY 231600Z AUTO 33005KT 290V360 9999 -TSRA FEW007 SCT013 BKN027 //////CB 24/23 Q1010

Aika: 01:59 (16:59 UTC)


TAF: puuttuu

Säähavainnot ja -ennusteet yli 4000 lentoasemalta (METAR- ja TAF-raportit).

Käytössä olevat sääasemat on merkitty karttaan keltaisilla ja punaisilla pisteillä.

Aseta hiiri pisteen päälle nähdäksesi sääaseman nimen.

Klikkaa sitten nähdäksesi säähavainnot ja -ennusteet.

Kartan vaihtaminen: klikkaa mustalla rastilla varustettuja vihreitä pisteitä, niin voit zoomata sisään; viivalla varustettua vihreää pistettä, niin voit zoomata ulos tai vihreitä nuolia, niin pääset viereisille kartoille.


METAR-TAF: